aviador You're here:

PAMK Decoded Metar

ST MICHAEL in AK, USA
Report Time2017-07-23 07:56:00
UTC Time2017-07-23 08:46:14
Flight Rules vfr VFR
Wind240° at 07 kt
W.Decomp.*RWY 20: 6.4 kt HW 2.7 kt RCW
W.Rank240° ranks 13
Current wind is below 240° avg. (10.4)
Visibility9999 m
Phenomena:N/A
Clouds:N/A
Expected CloudBase > 800 ft AGL from Temp-Dew spread
CeilingNone
Temp15°C (ISA 0)
Dew Point13°C (88% RH)
AAT13.4°C
QNH1014 hPa
Density Alt279 ft
Elevation92 ft
Report Wrong Elevation
Raw Report
PAMK 230756Z AUTO 24007KT 10SM CLR 15/13 A2995 RMK AO2 SLP145
T01500128 $=

Extra information for PAMK:More info

Metar Taf Metar & Taf Last 4 Metars F.Rules Stats Wind Profile Meteogram Temp Stats Airport Information Weather charts Add Link Nearby VenuesMetar ALERT Operation Metar Decoded Social comments

AIRNAV info for PAMK